createdAt,value
2022-12-08T00:02:11.999Z,99542.08
2022-12-08T00:05:04.693Z,99525.98
2022-12-08T00:07:58.143Z,99536.39
2022-12-08T00:11:01.220Z,99533.22
2022-12-08T00:13:06.112Z,99524.83
2022-12-08T00:15:39.191Z,99528.66
2022-12-08T00:18:12.423Z,99533.34
2022-12-08T00:20:45.555Z,99534.50
2022-12-08T00:23:18.694Z,99514.97
2022-12-08T00:25:54.761Z,99519.91
2022-12-08T00:28:28.273Z,99521.83
2022-12-08T00:31:01.319Z,99511.17
2022-12-08T00:33:34.357Z,99515.61
2022-12-08T00:36:09.896Z,99510.27
2022-12-08T00:38:44.868Z,99501.03
2022-12-08T00:41:19.637Z,99504.31
2022-12-08T00:43:52.718Z,99513.19
2022-12-08T00:46:25.996Z,99509.39
2022-12-08T00:48:59.122Z,99504.55
2022-12-08T00:51:32.511Z,99501.15
2022-12-08T00:54:06.052Z,99484.16
2022-12-08T00:56:39.784Z,99489.34
2022-12-08T00:59:12.849Z,99472.39
2022-12-08T01:01:47.529Z,99478.20
2022-12-08T01:04:21.874Z,99487.59
2022-12-08T01:06:54.832Z,99461.73
2022-12-08T01:09:28.104Z,99482.02
2022-12-08T01:12:01.428Z,99482.77
2022-12-08T01:14:34.519Z,99447.55
2022-12-08T01:17:07.681Z,99471.88
2022-12-08T01:19:40.781Z,99486.95
2022-12-08T01:22:13.907Z,99484.54
2022-12-08T01:24:46.995Z,99490.48
2022-12-08T01:27:20.104Z,99476.19
2022-12-08T01:29:53.267Z,99490.01
2022-12-08T01:32:26.712Z,99486.32
2022-12-08T01:34:59.854Z,99498.36
2022-12-08T01:37:34.401Z,99488.59
2022-12-08T01:40:09.846Z,99495.69
2022-12-08T01:42:43.854Z,99480.86
2022-12-08T01:45:21.008Z,99480.23
2022-12-08T01:47:56.835Z,99482.41
2022-12-08T01:50:31.340Z,99491.76
2022-12-08T01:53:06.498Z,99487.95
2022-12-08T01:55:42.406Z,99484.78
2022-12-08T01:58:18.759Z,99481.50
2022-12-08T02:00:52.743Z,99481.73
2022-12-08T02:03:28.979Z,99476.42
2022-12-08T02:06:02.844Z,99478.45
2022-12-08T02:08:37.487Z,99477.58
2022-12-08T02:11:13.949Z,99471.11
2022-12-08T02:13:49.205Z,99483.39
2022-12-08T02:16:29.737Z,99463.39
2022-12-08T02:19:30.205Z,99473.65
2022-12-08T02:21:47.816Z,99479.47
2022-12-08T02:24:24.023Z,99470.08
2022-12-08T02:30:37.618Z,99448.66
2022-12-08T02:33:43.770Z,99467.66
2022-12-08T02:39:03.622Z,99452.10
2022-12-08T02:41:41.668Z,99458.95
2022-12-08T02:44:18.402Z,99452.22
2022-12-08T02:46:54.346Z,99437.89
2022-12-08T02:49:32.400Z,99428.54
2022-12-08T02:52:11.301Z,99436.37
2022-12-08T02:54:47.276Z,99450.56
2022-12-08T02:57:25.398Z,99434.88
2022-12-08T03:00:08.743Z,99453.88
2022-12-08T03:02:58.173Z,99449.28
2022-12-08T03:05:42.932Z,99449.28
2022-12-08T03:08:19.086Z,99446.66
2022-12-08T03:10:55.172Z,99434.50
2022-12-08T03:13:31.095Z,99417.80
2022-12-08T03:16:06.215Z,99428.93
2022-12-08T03:18:44.138Z,99425.52
2022-12-08T03:21:19.720Z,99422.32
2022-12-08T03:23:55.519Z,99416.50
2022-12-08T03:26:32.497Z,99414.33
2022-12-08T03:29:05.998Z,99412.55
2022-12-08T03:31:41.877Z,99425.37
2022-12-08T03:34:16.331Z,99431.55
2022-12-08T03:36:49.521Z,99413.06
2022-12-08T03:39:22.975Z,99415.11
2022-12-08T03:41:56.163Z,99396.63
2022-12-08T03:44:29.191Z,99421.41
2022-12-08T03:47:02.301Z,99409.65
2022-12-08T03:49:35.492Z,99407.75
2022-12-08T03:52:08.833Z,99406.48
2022-12-08T03:54:41.724Z,99421.30
2022-12-08T03:57:14.861Z,99409.26
2022-12-08T03:59:47.866Z,99392.78
2022-12-08T04:02:21.152Z,99394.96
2022-12-08T04:04:54.320Z,99376.07
2022-12-08T04:07:27.228Z,99391.00
2022-12-08T04:10:00.607Z,99382.41
2022-12-08T04:12:34.554Z,99390.13
2022-12-08T04:15:10.017Z,99379.59
2022-12-08T04:17:43.183Z,99368.20
2022-12-08T04:20:16.780Z,99388.11
2022-12-08T04:22:49.771Z,99384.70
2022-12-08T04:25:23.103Z,99382.77
2022-12-08T04:27:56.459Z,99380.00
2022-12-08T04:30:29.485Z,99381.02
2022-12-08T04:33:02.765Z,99393.70
2022-12-08T04:35:36.070Z,99385.73
2022-12-08T04:38:09.255Z,99384.98
2022-12-08T04:40:42.596Z,99386.33
2022-12-08T04:43:15.648Z,99391.55
2022-12-08T04:45:49.257Z,99396.23
2022-12-08T04:48:22.220Z,99390.56
2022-12-08T04:50:55.084Z,99391.07
2022-12-08T04:53:28.317Z,99395.86
2022-12-08T04:56:01.368Z,99396.14
2022-12-08T04:58:34.435Z,99386.25
2022-12-08T05:01:08.943Z,99393.09
2022-12-08T05:03:42.167Z,99399.67
2022-12-08T05:06:16.009Z,99397.02
2022-12-08T05:08:49.099Z,99391.19
2022-12-08T05:11:22.216Z,99389.14
2022-12-08T05:13:55.072Z,99380.03
2022-12-08T05:16:28.160Z,99389.29
2022-12-08T05:19:01.492Z,99377.62
2022-12-08T05:21:34.880Z,99364.20
2022-12-08T05:24:08.802Z,99371.28
2022-12-08T05:26:42.079Z,99382.45
2022-12-08T05:29:15.048Z,99369.78
2022-12-08T05:31:58.709Z,99371.64
2022-12-08T05:34:34.567Z,99379.91
2022-12-08T05:37:07.673Z,99375.95
2022-12-08T05:39:41.075Z,99377.89
2022-12-08T05:42:14.161Z,99376.11
2022-12-08T05:44:47.408Z,99365.73
2022-12-08T05:47:20.520Z,99375.09
2022-12-08T05:49:53.695Z,99381.81
2022-12-08T05:52:26.872Z,99374.97
2022-12-08T05:54:59.998Z,99375.87
2022-12-08T05:57:34.311Z,99376.35
2022-12-08T06:00:09.493Z,99383.95
2022-12-08T06:02:45.880Z,99382.45
2022-12-08T06:05:19.228Z,99382.17
2022-12-08T06:07:53.024Z,99383.20
2022-12-08T06:10:26.134Z,99374.84
2022-12-08T06:12:59.488Z,99383.20
2022-12-08T06:15:32.954Z,99378.65
2022-12-08T06:18:06.486Z,99369.50
2022-12-08T06:20:39.310Z,99366.22
2022-12-08T06:23:12.297Z,99321.72
2022-12-08T06:25:45.330Z,99361.55
2022-12-08T06:28:18.875Z,99365.73
2022-12-08T06:30:52.138Z,99365.11
2022-12-08T06:33:26.154Z,99373.81
2022-12-08T06:36:02.548Z,99355.53
2022-12-08T06:38:39.327Z,99363.92
2022-12-08T06:41:11.092Z,99369.78
2022-12-08T06:43:44.576Z,99366.97
2022-12-08T06:46:19.351Z,99373.55
2022-12-08T06:48:52.607Z,99360.36
2022-12-08T06:51:25.704Z,99362.38
2022-12-08T06:53:58.582Z,99358.58
2022-12-08T06:56:31.591Z,99340.83
2022-12-08T06:59:06.041Z,99356.44
2022-12-08T07:01:39.162Z,99375.44
2022-12-08T07:04:12.132Z,99385.19
2022-12-08T07:06:45.308Z,99368.71
2022-12-08T07:09:18.579Z,99367.08
2022-12-08T07:11:52.031Z,99362.88
2022-12-08T07:14:25.223Z,99366.44
2022-12-08T07:16:58.112Z,99354.63
2022-12-08T07:19:31.368Z,99369.33
2022-12-08T07:22:04.628Z,99375.90
2022-12-08T07:24:37.672Z,99370.47
2022-12-08T07:27:11.111Z,99370.70
2022-12-08T07:29:44.343Z,99366.67
2022-12-08T07:32:17.617Z,99370.70
2022-12-08T07:34:50.705Z,99374.27
2022-12-08T07:37:23.764Z,99362.73
2022-12-08T07:39:56.893Z,99364.36
2022-12-08T07:42:29.934Z,99361.59
2022-12-08T07:45:03.193Z,99367.52
2022-12-08T07:47:36.600Z,99342.77
2022-12-08T07:50:11.490Z,99364.95
2022-12-08T07:52:44.633Z,99358.11
2022-12-08T07:55:19.440Z,99354.58
2022-12-08T07:57:52.879Z,99336.42
2022-12-08T08:00:26.086Z,99330.09
2022-12-08T08:02:59.486Z,99342.52
2022-12-08T08:05:32.839Z,99347.32
2022-12-08T08:08:06.470Z,99341.27
2022-12-08T08:10:39.749Z,99346.68
2022-12-08T08:13:12.732Z,99335.02
2022-12-08T08:15:45.955Z,99322.45
2022-12-08T08:18:19.293Z,99328.55
2022-12-08T08:20:52.407Z,99329.16
2022-12-08T08:23:25.551Z,99335.33
2022-12-08T08:26:01.297Z,99330.97
2022-12-08T08:28:35.267Z,99326.38
2022-12-08T08:31:08.825Z,99312.66
2022-12-08T08:33:42.147Z,99318.72
2022-12-08T08:36:15.473Z,99321.80
2022-12-08T08:38:48.652Z,99322.28
2022-12-08T08:41:21.952Z,99310.34
2022-12-08T08:43:55.422Z,99326.76
2022-12-08T08:46:28.491Z,99332.70
2022-12-08T08:49:01.622Z,99337.50
2022-12-08T08:51:35.430Z,99332.91
2022-12-08T08:54:08.751Z,99328.70
2022-12-08T08:56:41.881Z,99332.38
2022-12-08T08:59:15.113Z,99328.70
2022-12-08T09:01:48.412Z,99320.78
2022-12-08T09:04:22.350Z,99319.56
2022-12-08T09:06:55.494Z,99326.81
2022-12-08T09:09:28.395Z,99326.77
2022-12-08T09:12:01.516Z,99335.90
2022-12-08T09:14:34.604Z,99333.47
2022-12-08T09:17:08.578Z,99329.41
2022-12-08T09:19:41.975Z,99316.61
2022-12-08T09:22:16.783Z,99318.61
2022-12-08T09:24:49.949Z,99316.61
2022-12-08T09:27:23.088Z,99310.23
2022-12-08T09:29:56.095Z,99310.88
2022-12-08T09:32:29.203Z,99305.49
2022-12-08T09:35:02.410Z,99292.09
2022-12-08T09:37:35.827Z,99305.97
2022-12-08T09:40:12.874Z,99296.84
2022-12-08T09:42:48.820Z,99300.19
2022-12-08T09:45:24.429Z,99302.61
2022-12-08T09:48:01.598Z,99310.45
2022-12-08T09:50:37.557Z,99300.55
2022-12-08T09:53:14.172Z,99305.16
2022-12-08T09:55:50.453Z,99309.33
2022-12-08T09:58:25.768Z,99302.25
2022-12-08T10:00:58.930Z,99294.74
2022-12-08T10:03:33.156Z,99298.30
2022-12-08T10:06:09.493Z,99302.83
2022-12-08T10:08:46.973Z,99295.15
2022-12-08T10:11:24.709Z,99303.20
2022-12-08T10:14:00.736Z,99300.41
2022-12-08T10:16:37.539Z,99287.06
2022-12-08T10:19:16.847Z,99296.34
2022-12-08T10:21:50.812Z,99300.01
2022-12-08T10:24:28.194Z,99302.55
2022-12-08T10:27:01.871Z,99291.70
2022-12-08T10:29:34.867Z,99309.10
2022-12-08T10:32:12.176Z,99306.78
2022-12-08T10:35:03.251Z,99303.84
2022-12-08T10:37:36.866Z,99308.93
2022-12-08T10:40:14.295Z,99306.67
2022-12-08T10:42:49.968Z,99292.20
2022-12-08T10:45:27.230Z,99298.41
2022-12-08T10:48:03.832Z,99290.14
2022-12-08T10:50:39.579Z,99298.45
2022-12-08T10:53:16.459Z,99292.14
2022-12-08T10:55:51.537Z,99284.98
2022-12-08T10:58:35.319Z,99291.84
2022-12-08T11:01:13.335Z,99285.24
2022-12-08T11:03:49.684Z,99285.75
2022-12-08T11:06:25.797Z,99299.47
2022-12-08T11:09:01.565Z,99296.92
2022-12-08T11:11:43.147Z,99290.18
2022-12-08T11:14:20.593Z,99269.46
2022-12-08T11:16:55.405Z,99274.54
2022-12-08T11:19:29.330Z,99272.98
2022-12-08T11:22:02.519Z,99270.69
2022-12-08T11:24:37.917Z,99279.08
2022-12-08T11:27:12.144Z,99274.00
2022-12-08T11:29:45.460Z,99282.59
2022-12-08T11:32:18.925Z,99289.45
2022-12-08T11:34:55.442Z,99276.75
2022-12-08T11:37:34.982Z,99255.97
2022-12-08T11:40:10.635Z,99268.59
2022-12-08T11:42:44.783Z,99277.87
2022-12-08T11:45:20.580Z,99272.60
2022-12-08T11:47:56.458Z,99285.38
2022-12-08T11:50:32.673Z,99290.47
2022-12-08T11:53:09.418Z,99286.61
2022-12-08T11:55:49.683Z,99289.16
2022-12-08T11:58:23.165Z,99290.58
2022-12-08T12:00:56.739Z,99291.23
2022-12-08T12:03:33.132Z,99285.96
2022-12-08T12:06:38.300Z,99287.38
2022-12-08T12:08:55.749Z,99290.38
2022-12-08T12:11:46.544Z,99298.47
2022-12-08T12:14:26.415Z,99300.22
2022-12-08T12:17:05.347Z,99307.63
2022-12-08T12:19:41.232Z,99296.04
2022-12-08T12:24:58.706Z,99298.92
2022-12-08T12:27:34.712Z,99287.62
2022-12-08T12:30:12.412Z,99295.57
2022-12-08T12:32:49.109Z,99296.69
2022-12-08T12:35:27.845Z,99301.55
2022-12-08T12:38:04.334Z,99302.20
2022-12-08T12:40:41.328Z,99300.23
2022-12-08T12:43:28.708Z,99292.09
2022-12-08T12:46:17.529Z,99296.73
2022-12-08T12:48:50.573Z,99300.70
2022-12-08T12:51:46.140Z,99312.18
2022-12-08T12:54:25.916Z,99323.91
2022-12-08T12:57:04.362Z,99328.19
2022-12-08T12:59:50.110Z,99310.65
2022-12-08T13:02:23.968Z,99311.22
2022-12-08T13:05:02.278Z,99329.02
2022-12-08T13:07:38.459Z,99318.59
2022-12-08T13:10:19.817Z,99329.98
2022-12-08T13:13:08.275Z,99326.47
2022-12-08T13:15:43.695Z,99319.05
2022-12-08T13:18:22.301Z,99324.14
2022-12-08T13:20:57.456Z,99321.81
2022-12-08T13:23:48.283Z,99322.61
2022-12-08T13:26:23.949Z,99321.30
2022-12-08T13:32:01.958Z,99306.81
2022-12-08T13:34:39.512Z,99320.08
2022-12-08T13:37:17.189Z,99320.19
2022-12-08T13:39:50.689Z,99316.11
2022-12-08T13:42:27.027Z,99321.96
2022-12-08T13:45:24.212Z,99328.03
2022-12-08T13:47:54.330Z,99315.97
2022-12-08T13:58:18.851Z,99322.63
2022-12-08T14:01:05.232Z,99318.21
2022-12-08T14:04:04.360Z,99320.09
2022-12-08T14:06:19.620Z,99324.63
2022-12-08T14:09:01.464Z,99330.26
2022-12-08T14:11:34.852Z,99327.92
2022-12-08T14:14:10.947Z,99339.88
2022-12-08T14:16:46.474Z,99342.77
2022-12-08T14:19:22.515Z,99328.59
2022-12-08T14:21:59.263Z,99342.22
2022-12-08T14:24:35.780Z,99333.58
2022-12-08T14:27:13.898Z,99330.61
2022-12-08T14:29:49.991Z,99314.20
2022-12-08T14:32:45.466Z,99339.46
2022-12-08T14:35:25.421Z,99340.44
2022-12-08T14:38:01.561Z,99341.00
2022-12-08T14:40:38.013Z,99348.28
2022-12-08T14:43:23.617Z,99352.05
2022-12-08T14:46:00.261Z,99355.59
2022-12-08T14:48:44.786Z,99372.70
2022-12-08T14:51:23.134Z,99370.16
2022-12-08T14:53:59.562Z,99366.96
2022-12-08T14:56:37.828Z,99375.46
2022-12-08T14:59:16.183Z,99369.95
2022-12-08T15:01:51.558Z,99361.77
2022-12-08T15:04:29.976Z,99378.35
2022-12-08T15:07:03.226Z,99370.72
2022-12-08T15:09:38.607Z,99392.86
2022-12-08T15:12:27.073Z,99381.00
2022-12-08T15:15:00.975Z,99399.16
2022-12-08T15:17:38.374Z,99395.61
2022-12-08T15:20:34.757Z,99384.09
2022-12-08T15:23:05.313Z,99403.90
2022-12-08T15:25:39.041Z,99408.89
2022-12-08T15:28:13.623Z,99399.82
2022-12-08T15:30:46.995Z,99407.10
2022-12-08T15:33:20.258Z,99428.27
2022-12-08T15:35:54.185Z,99416.41
2022-12-08T15:38:29.585Z,99433.47
2022-12-08T15:41:02.896Z,99417.08
2022-12-08T15:43:36.949Z,99411.66
2022-12-08T15:46:11.919Z,99418.19
2022-12-08T15:48:56.456Z,99430.47
2022-12-08T15:51:26.673Z,99425.48
2022-12-08T15:53:59.933Z,99419.72
2022-12-08T15:56:41.212Z,99416.20
2022-12-08T15:59:17.999Z,99421.29
2022-12-08T16:01:52.483Z,99422.41
2022-12-08T16:05:17.796Z,99410.20
2022-12-08T16:09:39.420Z,99414.09
2022-12-08T16:13:26.898Z,99413.96
2022-12-08T16:17:46.651Z,99401.13
2022-12-08T16:20:28.159Z,99418.18
2022-12-08T16:23:03.698Z,99414.30
2022-12-08T16:25:46.287Z,99410.75
2022-12-08T16:28:29.636Z,99405.13
2022-12-08T16:30:41.568Z,99410.22
2022-12-08T16:33:15.625Z,99407.67
2022-12-08T16:35:48.873Z,99428.14
2022-12-08T16:38:22.565Z,99406.66
2022-12-08T16:41:15.349Z,99402.44
2022-12-08T16:43:50.555Z,99402.68
2022-12-08T16:46:27.689Z,99408.64
2022-12-08T16:49:00.781Z,99424.83
2022-12-08T16:51:34.075Z,99402.11
2022-12-08T16:54:07.759Z,99417.50
2022-12-08T16:56:42.529Z,99409.86
2022-12-08T16:59:17.398Z,99416.39
2022-12-08T17:01:52.838Z,99413.98
2022-12-08T17:04:32.398Z,99410.86
2022-12-08T17:07:07.138Z,99423.59
2022-12-08T17:09:41.621Z,99399.10
2022-12-08T17:12:16.630Z,99402.42
2022-12-08T17:14:50.864Z,99393.60
2022-12-08T17:17:25.473Z,99396.92
2022-12-08T17:19:58.548Z,99374.97
2022-12-08T17:22:32.076Z,99382.84
2022-12-08T17:25:06.095Z,99381.07
2022-12-08T17:27:39.809Z,99398.90
2022-12-08T17:30:16.762Z,99378.05
2022-12-08T17:32:49.942Z,99400.88
2022-12-08T17:35:23.112Z,99379.73
2022-12-08T17:37:56.041Z,99392.47
2022-12-08T17:40:29.292Z,99392.47
2022-12-08T17:43:02.646Z,99395.31
2022-12-08T17:45:35.891Z,99397.53
2022-12-08T17:48:09.820Z,99394.21
2022-12-08T17:50:44.890Z,99391.00
2022-12-08T17:53:18.162Z,99388.55
2022-12-08T17:56:24.585Z,99380.91
2022-12-08T17:58:57.832Z,99396.96
2022-12-08T18:01:36.071Z,99426.09
2022-12-08T18:04:11.219Z,99413.45
2022-12-08T18:06:50.696Z,99440.05
2022-12-08T18:09:24.207Z,99424.75
2022-12-08T18:11:57.560Z,99396.83
2022-12-08T18:14:30.821Z,99395.38
2022-12-08T18:17:04.143Z,99429.48
2022-12-08T18:19:37.292Z,99419.82
2022-12-08T18:22:12.395Z,99427.59
2022-12-08T18:24:47.706Z,99417.17
2022-12-08T18:27:20.989Z,99425.83
2022-12-08T18:29:53.854Z,99434.34
2022-12-08T18:32:27.818Z,99424.48
2022-12-08T18:35:02.029Z,99426.93
2022-12-08T18:37:36.097Z,99410.38
2022-12-08T18:40:12.244Z,99419.58
2022-12-08T18:42:45.453Z,99441.75
2022-12-08T18:45:22.387Z,99423.70
2022-12-08T18:47:55.338Z,99460.36
2022-12-08T18:50:28.574Z,99450.17
2022-12-08T18:53:01.895Z,99460.59
2022-12-08T18:55:35.235Z,99446.95
2022-12-08T18:58:10.167Z,99434.20
2022-12-08T19:00:47.622Z,99420.48
2022-12-08T19:03:20.736Z,99421.16
2022-12-08T19:06:03.907Z,99426.66
2022-12-08T19:08:41.428Z,99444.83
2022-12-08T19:11:27.898Z,99430.68
2022-12-08T19:14:07.561Z,99436.65
2022-12-08T19:16:40.750Z,99428.91
2022-12-08T19:19:13.987Z,99433.91
2022-12-08T19:21:47.209Z,99434.10
2022-12-08T19:24:20.921Z,99448.62
2022-12-08T19:26:54.394Z,99427.56
2022-12-08T19:29:27.637Z,99438.53
2022-12-08T19:32:05.201Z,99445.70
2022-12-08T19:34:38.809Z,99437.95
2022-12-08T19:37:12.898Z,99456.67
2022-12-08T19:40:03.957Z,99442.58
2022-12-08T19:43:11.549Z,99442.58
2022-12-08T19:48:25.121Z,99421.48
2022-12-08T19:50:58.934Z,99456.12
2022-12-08T19:53:32.245Z,99447.23
2022-12-08T19:56:06.154Z,99459.21
2022-12-08T19:58:39.577Z,99475.58
2022-12-08T20:01:13.006Z,99471.48
2022-12-08T20:03:46.513Z,99463.64
2022-12-08T20:06:21.324Z,99450.31
2022-12-08T20:08:58.172Z,99467.58
2022-12-08T20:11:31.589Z,99468.16
2022-12-08T20:14:07.349Z,99464.03
2022-12-08T20:16:41.935Z,99470.14
2022-12-08T20:19:15.672Z,99474.91
2022-12-08T20:21:49.263Z,99467.05
2022-12-08T20:24:22.615Z,99478.36
2022-12-08T20:26:56.281Z,99473.36
2022-12-08T20:29:29.714Z,99484.86
2022-12-08T20:32:03.260Z,99477.78
2022-12-08T20:34:36.760Z,99498.29
2022-12-08T20:37:10.249Z,99481.34
2022-12-08T20:39:43.620Z,99522.15
2022-12-08T20:42:18.625Z,99495.06
2022-12-08T20:44:51.706Z,99468.69
2022-12-08T20:47:25.257Z,99450.83
2022-12-08T20:49:58.794Z,99469.56
2022-12-08T20:52:32.247Z,99471.33
2022-12-08T20:55:06.223Z,99466.14
2022-12-08T20:57:39.535Z,99463.98
2022-12-08T21:00:14.783Z,99463.11
2022-12-08T21:02:56.526Z,99465.56
2022-12-08T21:05:26.524Z,99481.28
2022-12-08T21:07:59.908Z,99480.61
2022-12-08T21:10:36.844Z,99487.45
2022-12-08T21:13:09.107Z,99488.27
2022-12-08T21:15:43.733Z,99470.60
2022-12-08T21:18:17.607Z,99477.25
2022-12-08T21:20:51.228Z,99473.83
2022-12-08T21:23:24.462Z,99462.33
2022-12-08T21:25:57.994Z,99468.20
2022-12-08T21:28:31.023Z,99471.76
2022-12-08T21:31:08.149Z,99466.66
2022-12-08T21:33:41.523Z,99458.10
2022-12-08T21:36:16.253Z,99468.41
2022-12-08T21:38:50.427Z,99478.73
2022-12-08T21:41:43.764Z,99465.69
2022-12-08T21:44:19.447Z,99486.11
2022-12-08T21:46:53.488Z,99498.09
2022-12-08T21:49:26.840Z,99487.44
2022-12-08T21:52:01.631Z,99484.98
2022-12-08T21:54:35.242Z,99492.92
2022-12-08T21:57:08.671Z,99500.68
2022-12-08T21:59:41.859Z,99508.34
2022-12-08T22:02:21.963Z,99500.13
2022-12-08T22:04:52.858Z,99490.28
2022-12-08T22:07:26.075Z,99505.69
2022-12-08T22:09:59.348Z,99503.46
2022-12-08T22:12:35.022Z,99492.67
2022-12-08T22:15:11.007Z,99490.80
2022-12-08T22:17:45.140Z,99497.67
2022-12-08T22:20:18.344Z,99484.01
2022-12-08T22:22:51.538Z,99500.74
2022-12-08T22:25:25.369Z,99507.98
2022-12-08T22:27:58.618Z,99496.77
2022-12-08T22:30:38.644Z,99486.20
2022-12-08T22:33:07.345Z,99484.81
2022-12-08T22:35:40.722Z,99480.48
2022-12-08T22:38:13.824Z,99497.25
2022-12-08T22:40:46.721Z,99489.80
2022-12-08T22:43:20.257Z,99489.34
2022-12-08T22:45:53.630Z,99490.89
2022-12-08T22:48:26.786Z,99498.77
2022-12-08T22:51:02.380Z,99493.44
2022-12-08T22:53:35.754Z,99499.45
2022-12-08T22:56:11.358Z,99507.40
2022-12-08T22:58:45.691Z,99524.49
2022-12-08T23:01:27.448Z,99509.27
2022-12-08T23:04:02.634Z,99510.18
2022-12-08T23:06:36.308Z,99516.34
2022-12-08T23:09:09.904Z,99516.25
2022-12-08T23:11:44.233Z,99525.78
2022-12-08T23:14:17.786Z,99513.12
2022-12-08T23:16:51.365Z,99500.35
2022-12-08T23:19:24.805Z,99498.80
2022-12-08T23:21:58.300Z,99489.17
2022-12-08T23:24:33.425Z,99509.38
2022-12-08T23:27:09.711Z,99501.26
2022-12-08T23:29:46.691Z,99497.61
2022-12-08T23:32:26.115Z,99497.61
2022-12-08T23:35:00.735Z,99508.59
2022-12-08T23:37:34.209Z,99506.14
2022-12-08T23:40:10.693Z,99501.52
2022-12-08T23:42:47.608Z,99513.41
2022-12-08T23:45:25.345Z,99519.71
2022-12-08T23:48:02.780Z,99532.67
2022-12-08T23:50:39.591Z,99528.86
2022-12-08T23:53:13.968Z,99521.09
2022-12-08T23:55:48.568Z,99530.73
2022-12-08T23:58:22.454Z,99524.16
